Time;durP1;ratioP1;P1;durP2;ratioP2;P2;SDS_P1;SDS_P2;PMS_P1;PMS_P2;Temp;Humidity;BMP_temperature;BMP_pressure;BME280_temperature;BME280_humidity;BME280_pressure;Samples;Min_cycle;Max_cycle;Signal;HPM_P1;HPM_P2
2024/02/29 00:01:55;;;;;;;0.88;0.88;;;1.30;99.90;;;;;;4425746;32;20072;-77
2024/02/29 00:04:21;;;;;;;0.80;0.80;;;1.20;99.90;;;;;;4427625;32;20553;-77
2024/02/29 00:06:47;;;;;;;0.50;0.50;;;1.20;99.90;;;;;;4422139;32;20123;-76
2024/02/29 00:09:12;;;;;;;8.00;1.73;;;1.20;99.90;;;;;;4424332;32;20124;-76
2024/02/29 00:11:38;;;;;;;0.55;0.55;;;1.20;99.90;;;;;;4424945;32;20528;-76
2024/02/29 00:14:03;;;;;;;1.25;0.88;;;1.20;99.90;;;;;;4428706;32;20556;-76
2024/02/29 00:16:29;;;;;;;0.85;0.85;;;1.20;99.90;;;;;;4424780;32;20890;-74
2024/02/29 00:18:54;;;;;;;0.90;0.90;;;1.20;99.90;;;;;;4425995;32;20554;-76
2024/02/29 00:21:20;;;;;;;0.47;0.47;;;1.20;99.90;;;;;;4428747;32;20121;-76
2024/02/29 00:23:45;;;;;;;0.62;0.62;;;1.20;99.90;;;;;;4424862;32;20088;-76
2024/02/29 00:26:14;;;;;;;0.40;0.40;;;1.20;99.90;;;;;;4424200;32;20083;-76
2024/02/29 00:28:40;;;;;;;1.02;0.73;;;1.20;99.90;;;;;;4425859;32;20069;-76
2024/02/29 00:31:05;;;;;;;0.70;0.70;;;1.20;99.90;;;;;;4425621;32;20595;-76
2024/02/29 00:33:31;;;;;;;0.40;0.40;;;1.30;99.90;;;;;;4426702;32;20073;-76
2024/02/29 00:35:56;;;;;;;0.70;0.70;;;1.20;99.90;;;;;;4423693;32;20073;-76
2024/02/29 00:38:22;;;;;;;0.60;0.60;;;1.20;99.90;;;;;;4425196;32;20120;-76
2024/02/29 00:40:48;;;;;;;0.90;0.90;;;1.10;99.90;;;;;;4425025;32;20073;-76
2024/02/29 00:43:14;;;;;;;2.05;1.55;;;1.10;99.90;;;;;;4424615;32;20060;-76
2024/02/29 00:45:39;;;;;;;1.25;1.15;;;1.00;99.90;;;;;;4423459;32;20057;-77
2024/02/29 00:48:05;;;;;;;1.02;1.02;;;1.00;99.90;;;;;;4424558;32;20131;-77
2024/02/29 00:50:32;;;;;;;0.50;0.50;;;1.00;99.90;;;;;;4424249;32;20419;-77
2024/02/29 00:52:58;;;;;;;0.80;0.80;;;1.00;99.90;;;;;;4423913;32;20082;-77
2024/02/29 00:55:23;;;;;;;1.73;1.60;;;0.90;99.90;;;;;;4425734;32;20505;-77
2024/02/29 00:57:51;;;;;;;0.50;0.50;;;1.00;99.90;;;;;;4421924;32;20069;-77
2024/02/29 01:00:17;;;;;;;1.12;1.02;;;1.00;99.90;;;;;;4424540;32;20069;-77
2024/02/29 01:02:43;;;;;;;0.50;0.50;;;1.00;99.90;;;;;;4426375;32;20072;-77
2024/02/29 01:05:09;;;;;;;0.50;0.50;;;1.00;99.90;;;;;;4424849;32;20514;-77
2024/02/29 01:07:36;;;;;;;2.30;1.77;;;0.90;99.90;;;;;;4422335;32;20140;-77
2024/02/29 01:10:04;;;;;;;1.65;1.00;;;0.80;99.90;;;;;;4426221;32;20123;-77
2024/02/29 01:12:31;;;;;;;0.40;0.40;;;0.90;99.90;;;;;;4423904;32;20525;-77
2024/02/29 01:14:57;;;;;;;0.70;0.70;;;0.90;99.90;;;;;;4421955;32;20085;-77
2024/02/29 01:17:24;;;;;;;1.02;1.00;;;0.90;99.90;;;;;;4421144;32;20082;-76
2024/02/29 01:19:50;;;;;;;0.75;0.75;;;1.00;99.90;;;;;;4425001;32;20100;-77
2024/02/29 01:22:15;;;;;;;0.62;0.62;;;1.10;99.90;;;;;;4425020;32;20081;-76
2024/02/29 01:24:41;;;;;;;0.65;0.65;;;1.10;99.90;;;;;;4425656;32;20073;-76
2024/02/29 01:27:07;;;;;;;1.50;1.15;;;1.10;99.90;;;;;;4423816;32;20101;-76
2024/02/29 01:29:33;;;;;;;0.50;0.50;;;1.00;99.90;;;;;;4424234;32;20077;-76
2024/02/29 01:31:59;;;;;;;0.47;0.47;;;1.00;99.90;;;;;;4427337;32;20122;-77
2024/02/29 01:34:24;;;;;;;0.60;0.60;;;0.90;99.90;;;;;;4425352;32;20164;-76
2024/02/29 01:36:50;;;;;;;0.68;0.68;;;0.90;99.90;;;;;;4422694;32;20081;-76
2024/02/29 01:39:15;;;;;;;1.12;1.02;;;0.80;99.90;;;;;;4423944;32;20069;-75
2024/02/29 01:41:41;;;;;;;0.40;0.40;;;0.70;99.90;;;;;;4424626;32;20065;-77
2024/02/29 01:44:07;;;;;;;0.60;0.60;;;0.70;99.90;;;;;;4427636;32;20074;-77
2024/02/29 01:46:33;;;;;;;0.50;0.50;;;0.70;99.90;;;;;;4423904;32;20081;-76
2024/02/29 01:49:00;;;;;;;0.45;0.45;;;0.70;99.90;;;;;;4411353;32;20092;-76
2024/02/29 01:51:26;;;;;;;0.75;0.75;;;0.70;99.90;;;;;;4426470;32;20089;-75
2024/02/29 01:53:52;;;;;;;1.95;1.30;;;0.80;99.90;;;;;;4413246;32;20088;-76
2024/02/29 01:56:20;;;;;;;0.50;0.50;;;0.70;99.90;;;;;;4422575;32;20105;-76
2024/02/29 01:58:45;;;;;;;0.65;0.65;;;0.70;99.90;;;;;;4425348;32;20089;-76
2024/02/29 02:01:11;;;;;;;3.00;1.80;;;0.70;99.90;;;;;;4423868;32;20089;-75
2024/02/29 02:03:38;;;;;;;0.47;0.47;;;0.60;99.90;;;;;;4427913;32;20090;-76
2024/02/29 02:06:04;;;;;;;0.82;0.82;;;0.60;99.90;;;;;;4423201;32;20078;-77
2024/02/29 02:08:32;;;;;;;2.17;1.05;;;0.60;99.90;;;;;;4422390;32;20065;-76
2024/02/29 02:10:57;;;;;;;0.47;0.47;;;0.60;99.90;;;;;;4425182;32;20085;-76
2024/02/29 02:13:23;;;;;;;0.68;0.68;;;0.60;99.90;;;;;;4425376;32;20099;-76
2024/02/29 02:15:49;;;;;;;0.50;0.50;;;0.60;99.90;;;;;;4423759;32;20572;-76
2024/02/29 02:18:15;;;;;;;0.52;0.52;;;0.60;99.90;;;;;;4424996;32;20314;-77
2024/02/29 02:20:41;;;;;;;3.85;1.37;;;0.60;99.90;;;;;;4424115;32;20065;-77
2024/02/29 02:23:07;;;;;;;4.90;1.50;;;0.60;99.90;;;;;;4423836;32;20074;-77
2024/02/29 02:25:32;;;;;;;1.27;1.23;;;0.60;99.90;;;;;;4425085;32;20120;-76
2024/02/29 02:27:58;;;;;;;0.60;0.60;;;0.60;99.90;;;;;;4424272;32;20088;-76
2024/02/29 02:30:23;;;;;;;0.55;0.55;;;0.50;99.90;;;;;;4426665;32;20415;-76
2024/02/29 02:32:49;;;;;;;3.58;1.62;;;0.60;99.90;;;;;;4425073;32;20066;-76
2024/02/29 02:35:14;;;;;;;1.77;1.10;;;0.60;99.90;;;;;;4409442;32;20148;-76
2024/02/29 02:37:42;;;;;;;0.55;0.55;;;0.70;99.90;;;;;;4421615;32;20092;-77
2024/02/29 02:40:08;;;;;;;0.75;0.75;;;0.60;99.90;;;;;;4424413;32;20076;-77
2024/02/29 02:42:33;;;;;;;0.70;0.70;;;0.60;99.90;;;;;;4421408;32;20534;-77
2024/02/29 02:45:00;;;;;;;3.28;1.20;;;0.50;99.90;;;;;;4423795;32;20094;-75
2024/02/29 02:47:25;;;;;;;1.48;1.27;;;0.50;99.90;;;;;;4423756;32;20073;-76
2024/02/29 02:49:51;;;;;;;1.02;0.90;;;0.50;99.90;;;;;;4422849;32;20076;-75
2024/02/29 02:52:18;;;;;;;1.02;0.93;;;0.50;99.90;;;;;;4423822;32;20517;-76
2024/02/29 02:54:44;;;;;;;1.75;1.15;;;0.50;99.90;;;;;;4424945;32;20098;-76
2024/02/29 02:57:09;;;;;;;0.80;0.80;;;0.50;99.90;;;;;;4424151;32;20077;-76
2024/02/29 02:59:36;;;;;;;0.77;0.77;;;0.50;99.90;;;;;;4421001;32;20088;-76
2024/02/29 03:02:02;;;;;;;1.33;1.23;;;0.60;99.90;;;;;;4424321;32;20078;-76
2024/02/29 03:04:27;;;;;;;1.12;1.02;;;0.60;99.90;;;;;;4424997;32;20072;-76
2024/02/29 03:06:54;;;;;;;1.90;1.27;;;0.70;99.90;;;;;;4422002;32;20530;-76
2024/02/29 03:09:19;;;;;;;0.77;0.77;;;0.60;99.90;;;;;;4422061;32;20419;-76
2024/02/29 03:11:45;;;;;;;0.68;0.68;;;0.60;99.90;;;;;;4424341;32;20147;-77
2024/02/29 03:14:10;;;;;;;0.62;0.62;;;0.60;99.90;;;;;;4427759;32;20074;-77
2024/02/29 03:16:37;;;;;;;0.50;0.50;;;0.50;99.90;;;;;;4409477;32;20084;-77
2024/02/29 03:19:04;;;;;;;0.70;0.70;;;0.60;99.90;;;;;;4422789;32;20081;-76
2024/02/29 03:21:32;;;;;;;0.65;0.65;;;0.50;99.90;;;;;;4422381;32;20128;-76
2024/02/29 03:23:58;;;;;;;0.50;0.50;;;0.50;99.90;;;;;;4425846;32;20135;-77
2024/02/29 03:26:24;;;;;;;0.73;0.73;;;0.50;99.90;;;;;;4425522;32;20077;-76
2024/02/29 03:28:49;;;;;;;2.00;1.85;;;0.50;99.90;;;;;;4426045;32;20145;-75
2024/02/29 03:31:16;;;;;;;1.42;1.33;;;0.40;99.90;;;;;;4424536;32;20070;-75
2024/02/29 03:33:42;;;;;;;0.60;0.60;;;0.50;99.90;;;;;;4425531;32;20077;-76
2024/02/29 03:36:08;;;;;;;0.40;0.40;;;0.60;99.90;;;;;;4422952;32;20532;-76
2024/02/29 03:38:35;;;;;;;1.37;1.05;;;0.50;99.90;;;;;;4422568;32;20081;-76
2024/02/29 03:41:01;;;;;;;0.60;0.60;;;0.40;99.90;;;;;;4422218;32;20159;-76
2024/02/29 03:43:27;;;;;;;0.80;0.80;;;0.50;99.90;;;;;;4423692;32;20099;-75
2024/02/29 03:45:52;;;;;;;0.90;0.90;;;0.40;99.90;;;;;;4408099;32;21013;-75
2024/02/29 03:48:18;;;;;;;1.75;1.50;;;0.50;99.90;;;;;;4423695;32;20184;-75
2024/02/29 03:50:44;;;;;;;0.50;0.50;;;0.40;99.90;;;;;;4422386;32;20065;-76
2024/02/29 03:53:10;;;;;;;0.50;0.50;;;0.40;99.90;;;;;;4422977;32;20089;-76
2024/02/29 03:55:36;;;;;;;1.80;1.45;;;0.40;99.90;;;;;;4422404;32;20081;-75
2024/02/29 03:58:03;;;;;;;0.85;0.85;;;0.30;99.90;;;;;;4424606;32;20085;-76
2024/02/29 04:02:54;;;;;;;0.50;0.50;;;0.30;99.90;;;;;;4423892;32;20073;-76
2024/02/29 04:05:24;;;;;;;1.55;1.05;;;0.30;99.90;;;;;;4421317;32;20131;-76
2024/02/29 04:07:50;;;;;;;0.90;0.90;;;0.40;99.90;;;;;;4420866;32;20131;-75
2024/02/29 04:10:16;;;;;;;2.67;1.48;;;0.40;99.90;;;;;;4423506;32;20427;-75
2024/02/29 04:12:41;;;;;;;0.57;0.57;;;0.40;99.90;;;;;;4423001;32;20086;-76
2024/02/29 04:15:10;;;;;;;0.82;0.82;;;0.40;99.90;;;;;;4422699;32;20117;-75
2024/02/29 04:17:36;;;;;;;0.50;0.50;;;0.40;99.90;;;;;;4422832;32;20081;-76
2024/02/29 04:20:01;;;;;;;1.35;1.08;;;0.40;99.90;;;;;;4424794;32;20559;-77
2024/02/29 04:22:29;;;;;;;1.50;1.17;;;0.40;99.90;;;;;;4425983;32;20403;-76
2024/02/29 04:24:55;;;;;;;1.08;1.08;;;0.40;99.90;;;;;;4425654;32;20648;-76
2024/02/29 04:27:21;;;;;;;0.90;0.90;;;0.40;99.90;;;;;;4424900;32;20101;-77
2024/02/29 04:29:47;;;;;;;1.15;1.12;;;0.40;99.90;;;;;;4424215;32;20061;-76
2024/02/29 04:32:12;;;;;;;1.17;1.05;;;0.30;99.90;;;;;;4428060;32;20085;-77
2024/02/29 04:34:38;;;;;;;4.00;2.20;;;0.30;99.90;;;;;;4426387;32;20116;-76
2024/02/29 04:37:03;;;;;;;0.65;0.65;;;0.30;99.90;;;;;;4422294;32;20077;-76
2024/02/29 04:39:29;;;;;;;3.90;1.30;;;0.20;99.90;;;;;;4425384;32;20534;-76
2024/02/29 04:41:54;;;;;;;0.40;0.40;;;0.30;99.90;;;;;;4427172;32;20069;-76
2024/02/29 04:44:20;;;;;;;0.60;0.60;;;0.40;99.90;;;;;;4424685;32;20469;-76
2024/02/29 04:46:45;;;;;;;1.90;1.70;;;0.30;99.90;;;;;;4426757;32;20088;-76
2024/02/29 04:49:11;;;;;;;0.80;0.80;;;0.30;99.90;;;;;;4426997;32;20097;-77
2024/02/29 04:51:36;;;;;;;3.12;1.90;;;0.30;99.90;;;;;;4425464;32;20086;-76
2024/02/29 04:54:02;;;;;;;0.68;0.68;;;0.30;99.90;;;;;;4429092;32;20069;-76
2024/02/29 04:56:28;;;;;;;1.00;1.00;;;0.40;99.90;;;;;;4425315;32;20069;-76
2024/02/29 04:58:53;;;;;;;1.10;0.90;;;0.30;99.90;;;;;;4425927;32;20070;-77
2024/02/29 05:01:19;;;;;;;1.60;1.50;;;0.20;99.90;;;;;;4425180;32;20136;-76
2024/02/29 05:03:44;;;;;;;2.72;1.48;;;0.20;99.90;;;;;;4425930;32;20360;-76
2024/02/29 05:06:14;;;;;;;0.80;0.80;;;0.30;99.90;;;;;;4423260;32;20097;-76
2024/02/29 05:08:40;;;;;;;1.83;1.73;;;0.20;99.90;;;;;;4422029;32;20435;-76
2024/02/29 05:11:09;;;;;;;0.55;0.55;;;0.20;99.90;;;;;;4422038;32;20121;-76
2024/02/29 05:13:35;;;;;;;0.60;0.60;;;0.30;99.90;;;;;;4423817;32;20417;-76
2024/02/29 05:16:04;;;;;;;0.77;0.77;;;0.30;99.90;;;;;;4423572;32;20069;-76
2024/02/29 05:18:30;;;;;;;1.48;1.17;;;0.40;99.90;;;;;;4426573;32;20100;-76
2024/02/29 05:20:55;;;;;;;3.00;1.62;;;0.30;99.90;;;;;;4423903;32;20536;-76
2024/02/29 05:23:21;;;;;;;0.52;0.52;;;0.30;99.90;;;;;;4424810;32;20601;-76
2024/02/29 05:25:47;;;;;;;0.90;0.90;;;0.20;99.90;;;;;;4426629;32;20065;-77
2024/02/29 05:28:13;;;;;;;0.70;0.70;;;0.30;99.90;;;;;;4425572;32;20069;-76
2024/02/29 05:30:38;;;;;;;18.33;3.42;;;0.30;99.90;;;;;;4425090;32;20434;-76
2024/02/29 05:33:04;;;;;;;0.57;0.57;;;0.30;99.90;;;;;;4427757;32;20555;-77
2024/02/29 05:35:29;;;;;;;2.00;1.65;;;0.40;99.90;;;;;;4427129;32;20113;-77
2024/02/29 05:37:55;;;;;;;0.80;0.80;;;0.30;99.90;;;;;;4424311;32;20135;-76
2024/02/29 05:40:20;;;;;;;0.80;0.80;;;0.30;99.90;;;;;;4425568;32;20053;-77
2024/02/29 05:42:46;;;;;;;0.80;0.80;;;0.40;99.90;;;;;;4425228;32;20053;-76
2024/02/29 05:45:12;;;;;;;1.12;1.02;;;0.30;99.90;;;;;;4427608;32;20131;-76
2024/02/29 05:47:38;;;;;;;1.10;1.10;;;0.30;99.90;;;;;;4424956;32;20570;-76
2024/02/29 05:50:04;;;;;;;1.12;1.02;;;0.30;99.90;;;;;;4424333;32;20077;-77
2024/02/29 05:52:29;;;;;;;0.40;0.40;;;0.30;99.90;;;;;;4421614;32;20062;-77
2024/02/29 05:54:56;;;;;;;0.80;0.80;;;0.20;99.90;;;;;;4426400;32;20446;-77
2024/02/29 05:57:24;;;;;;;0.80;0.80;;;0.30;99.90;;;;;;4420778;32;20491;-77
2024/02/29 05:59:50;;;;;;;1.75;0.95;;;0.30;99.90;;;;;;4423300;32;20521;-77
2024/02/29 06:02:15;;;;;;;1.37;1.30;;;0.20;99.90;;;;;;4422597;32;20062;-77
2024/02/29 06:04:41;;;;;;;0.93;0.93;;;0.20;99.90;;;;;;4426677;32;20155;-76
2024/02/29 06:07:06;;;;;;;0.60;0.60;;;0.20;99.90;;;;;;4410023;32;20078;-76
2024/02/29 06:09:35;;;;;;;0.55;0.55;;;0.20;99.90;;;;;;4422224;32;20109;-75
2024/02/29 06:12:01;;;;;;;0.82;0.82;;;0.30;99.90;;;;;;4423066;32;20065;-75
2024/02/29 06:14:26;;;;;;;0.93;0.93;;;0.30;99.90;;;;;;4412396;32;20194;-76
2024/02/29 06:16:52;;;;;;;1.12;1.12;;;0.30;99.90;;;;;;4422286;32;20120;-75
2024/02/29 06:19:18;;;;;;;1.40;1.25;;;0.30;99.90;;;;;;4423420;32;20065;-77
2024/02/29 06:21:43;;;;;;;1.58;1.20;;;0.30;99.90;;;;;;4413000;32;20077;-76
2024/02/29 06:24:09;;;;;;;0.60;0.60;;;0.40;99.90;;;;;;4424918;32;20081;-76
2024/02/29 06:26:35;;;;;;;0.70;0.70;;;0.30;99.90;;;;;;4405711;32;20085;-76
2024/02/29 06:29:01;;;;;;;0.77;0.77;;;0.40;99.90;;;;;;4419064;32;20076;-76
2024/02/29 06:31:27;;;;;;;2.53;1.92;;;0.50;99.90;;;;;;4419957;32;20081;-74
2024/02/29 06:33:53;;;;;;;0.70;0.70;;;0.50;99.90;;;;;;4416173;32;20210;-75
2024/02/29 06:36:18;;;;;;;0.68;0.68;;;0.50;99.90;;;;;;4415116;32;20072;-75
2024/02/29 06:38:44;;;;;;;0.43;0.43;;;0.60;99.90;;;;;;4415007;32;20141;-75
2024/02/29 06:41:10;;;;;;;1.27;1.17;;;0.60;99.90;;;;;;4413635;32;20092;-75
2024/02/29 06:43:35;;;;;;;0.50;0.50;;;0.50;99.90;;;;;;4415206;32;20109;-76
2024/02/29 06:46:05;;;;;;;2.90;1.95;;;0.60;99.90;;;;;;4415859;32;20177;-75
2024/02/29 06:48:30;;;;;;;2.07;1.60;;;0.70;99.90;;;;;;4412421;32;21410;-76
2024/02/29 06:50:59;;;;;;;0.93;0.93;;;0.80;99.90;;;;;;4405855;32;20120;-76
2024/02/29 06:53:25;;;;;;;1.40;1.30;;;0.90;99.90;;;;;;4399849;32;20144;-76
2024/02/29 06:55:51;;;;;;;1.08;0.98;;;1.00;99.90;;;;;;4386777;32;20132;-76
2024/02/29 06:58:18;;;;;;;1.55;1.45;;;1.10;99.90;;;;;;4400583;32;20350;-76
2024/02/29 07:00:47;;;;;;;1.12;1.10;;;1.10;99.90;;;;;;4387958;32;20467;-76
2024/02/29 07:03:13;;;;;;;1.80;1.70;;;1.30;99.90;;;;;;4381934;32;20304;-76
2024/02/29 07:05:40;;;;;;;0.40;0.40;;;1.30;99.90;;;;;;4385724;32;20179;-76
2024/02/29 07:08:07;;;;;;;0.80;0.80;;;1.30;99.90;;;;;;4389615;32;20076;-76
2024/02/29 07:10:33;;;;;;;2.15;1.70;;;1.40;99.90;;;;;;4375709;32;21674;-76
2024/02/29 07:13:00;;;;;;;2.45;1.58;;;1.40;99.90;;;;;;4386439;32;20349;-77
2024/02/29 07:15:26;;;;;;;0.80;0.80;;;1.30;99.90;;;;;;4390144;32;20117;-76
2024/02/29 07:17:51;;;;;;;1.25;0.98;;;1.30;99.90;;;;;;4377323;32;20092;-75
2024/02/29 07:20:18;;;;;;;25.15;2.47;;;1.50;99.90;;;;;;4375150;32;20230;-75
2024/02/29 07:22:46;;;;;;;0.62;0.62;;;1.50;99.90;;;;;;4379773;32;20780;-76
2024/02/29 07:25:12;;;;;;;1.05;0.93;;;1.60;99.90;;;;;;4384715;32;20150;-75
2024/02/29 07:27:40;;;;;;;0.62;0.62;;;1.60;99.90;;;;;;4392755;32;20078;-76
2024/02/29 07:30:08;;;;;;;1.25;1.15;;;1.60;99.90;;;;;;4363133;32;20109;-75
2024/02/29 07:32:34;;;;;;;0.90;0.90;;;1.50;99.90;;;;;;4388378;32;20983;-75
2024/02/29 07:34:59;;;;;;;0.73;0.73;;;1.60;99.90;;;;;;4380465;32;20529;-77
2024/02/29 07:37:25;;;;;;;3.83;2.20;;;1.70;99.90;;;;;;4392920;32;21387;-76
2024/02/29 07:39:51;;;;;;;1.33;0.95;;;1.80;99.90;;;;;;4393296;32;21744;-77
2024/02/29 07:42:17;;;;;;;17.85;6.30;;;1.90;99.90;;;;;;4393385;32;20092;-76
2024/02/29 07:44:42;;;;;;;0.98;0.98;;;1.90;99.90;;;;;;4383446;32;22362;-76
2024/02/29 07:47:08;;;;;;;1.48;1.37;;;2.00;99.90;;;;;;4398845;32;20418;-79
2024/02/29 07:49:33;;;;;;;0.95;0.95;;;2.10;99.90;;;;;;4379495;32;20097;-76
2024/02/29 07:51:59;;;;;;;0.88;0.88;;;2.30;99.90;;;;;;4391385;32;20486;-77
2024/02/29 07:54:25;;;;;;;0.40;0.40;;;2.30;99.90;;;;;;4392300;32;20526;-75
2024/02/29 07:56:51;;;;;;;2.30;0.95;;;2.40;99.90;;;;;;4401994;32;20722;-76
2024/02/29 07:59:16;;;;;;;2.03;1.40;;;2.50;99.90;;;;;;4399914;32;20160;-76
2024/02/29 08:04:10;;;;;;;0.75;0.75;;;2.60;99.90;;;;;;4401786;32;20471;-77
2024/02/29 08:06:36;;;;;;;1.98;1.12;;;2.70;99.90;;;;;;4386290;32;20415;-76
2024/02/29 08:09:04;;;;;;;0.40;0.40;;;2.70;99.90;;;;;;4386624;32;20084;-75
2024/02/29 08:11:30;;;;;;;0.47;0.47;;;2.80;99.90;;;;;;4392800;32;20094;-76
2024/02/29 08:13:55;;;;;;;3.15;1.20;;;2.70;99.90;;;;;;4396426;32;20095;-77
2024/02/29 08:16:21;;;;;;;1.25;1.10;;;2.70;99.90;;;;;;4400123;32;20107;-76
2024/02/29 08:18:47;;;;;;;1.00;1.00;;;2.80;99.90;;;;;;4396895;32;20093;-77
2024/02/29 08:21:13;;;;;;;3.65;1.25;;;2.90;99.90;;;;;;4394790;32;20482;-76
2024/02/29 08:23:38;;;;;;;1.15;1.05;;;3.00;99.90;;;;;;4389915;32;20768;-76
2024/02/29 08:26:08;;;;;;;2.33;0.70;;;3.20;99.90;;;;;;4394060;32;20267;-76
2024/02/29 08:28:34;;;;;;;0.90;0.90;;;3.20;99.90;;;;;;4394934;32;20121;-76
2024/02/29 08:30:59;;;;;;;0.82;0.82;;;3.30;99.90;;;;;;4390641;32;20100;-75
2024/02/29 08:33:25;;;;;;;2.10;1.27;;;3.40;99.90;;;;;;4396836;32;21155;-75
2024/02/29 08:35:50;;;;;;;1.40;1.02;;;3.40;99.90;;;;;;4377015;32;20135;-77
2024/02/29 08:38:16;;;;;;;0.80;0.80;;;3.50;99.90;;;;;;4404826;32;20738;-77
2024/02/29 08:40:42;;;;;;;1.17;1.12;;;3.60;99.90;;;;;;4404475;32;20536;-77
2024/02/29 08:43:07;;;;;;;0.75;0.75;;;3.60;99.90;;;;;;4410468;32;20687;-75
2024/02/29 08:45:33;;;;;;;0.73;0.73;;;3.50;99.90;;;;;;4398322;32;20092;-75
2024/02/29 08:47:58;;;;;;;1.48;1.37;;;3.60;99.90;;;;;;4392906;32;20183;-76
2024/02/29 08:50:24;;;;;;;6.30;2.37;;;3.60;99.90;;;;;;4400162;32;20138;-76
2024/02/29 08:52:50;;;;;;;2.60;1.25;;;3.80;99.90;;;;;;4393898;32;20078;-76
2024/02/29 08:55:15;;;;;;;1.27;1.17;;;3.90;99.90;;;;;;4398230;32;20090;-76
2024/02/29 08:57:41;;;;;;;4.12;1.25;;;4.10;99.90;;;;;;4393822;32;20077;-76
2024/02/29 09:02:35;;;;;;;1.40;1.30;;;4.40;99.90;;;;;;4388129;32;20730;-76
2024/02/29 09:05:01;;;;;;;0.80;0.77;;;4.40;99.90;;;;;;4388072;32;20161;-76
2024/02/29 09:07:26;;;;;;;1.60;1.50;;;4.30;99.90;;;;;;4390874;32;20101;-75
2024/02/29 09:09:52;;;;;;;2.08;1.45;;;4.50;99.90;;;;;;4395368;32;20092;-76
2024/02/29 09:12:18;;;;;;;1.25;1.15;;;4.70;99.90;;;;;;4398935;32;20085;-76
2024/02/29 09:14:46;;;;;;;1.35;1.25;;;4.70;99.90;;;;;;4381558;32;20096;-76
2024/02/29 09:17:11;;;;;;;0.60;0.60;;;4.70;99.90;;;;;;4391683;32;20131;-76
2024/02/29 09:19:37;;;;;;;1.55;1.10;;;4.90;99.90;;;;;;4389566;32;20109;-75
2024/02/29 09:22:03;;;;;;;1.12;0.98;;;5.00;99.90;;;;;;4381784;32;20184;-76
2024/02/29 09:24:29;;;;;;;0.88;0.88;;;5.00;99.90;;;;;;4389655;32;20085;-76
2024/02/29 09:26:54;;;;;;;1.00;1.00;;;5.10;99.90;;;;;;4393790;32;20357;-76
2024/02/29 09:29:21;;;;;;;0.98;0.80;;;5.50;99.90;;;;;;4387831;32;20214;-76
2024/02/29 09:31:47;;;;;;;1.10;1.10;;;5.70;99.90;;;;;;4396232;32;20130;-74
2024/02/29 09:34:12;;;;;;;2.17;1.33;;;5.90;99.90;;;;;;4391685;32;20475;-76
2024/02/29 09:36:42;;;;;;;2.65;1.52;;;5.90;99.90;;;;;;4393058;32;20477;-75
2024/02/29 09:39:08;;;;;;;0.80;0.80;;;6.00;99.90;;;;;;4398567;32;20124;-75
2024/02/29 09:41:34;;;;;;;1.62;1.35;;;6.10;99.90;;;;;;4390226;32;20101;-76
2024/02/29 09:44:02;;;;;;;2.85;1.20;;;6.30;99.90;;;;;;4388511;32;20073;-77
2024/02/29 09:46:28;;;;;;;0.70;0.70;;;6.40;99.90;;;;;;4394015;32;20081;-77
2024/02/29 09:48:53;;;;;;;0.93;0.90;;;6.30;99.90;;;;;;4398598;32;20081;-78
2024/02/29 09:51:21;;;;;;;0.73;0.73;;;6.50;99.90;;;;;;4387390;32;20069;-78
2024/02/29 09:53:50;;;;;;;2.35;1.00;;;6.50;99.90;;;;;;4389222;32;21410;-75
2024/02/29 09:56:21;;;;;;;1.20;1.10;;;6.80;99.90;;;;;;4391956;32;21419;-75
2024/02/29 09:58:48;;;;;;;2.85;1.45;;;7.00;99.90;;;;;;4392308;32;20100;-77
2024/02/29 10:01:15;;;;;;;1.20;1.08;;;7.20;99.90;;;;;;4397305;32;20794;-77
2024/02/29 10:03:42;;;;;;;0.85;0.85;;;7.10;99.90;;;;;;4398892;32;21138;-75
2024/02/29 10:06:09;;;;;;;11.52;1.37;;;7.30;99.90;;;;;;4398991;32;20444;-78
2024/02/29 10:08:36;;;;;;;3.70;0.95;;;7.50;99.90;;;;;;4399532;32;20112;-78
2024/02/29 10:11:03;;;;;;;1.50;1.33;;;7.80;99.90;;;;;;4402072;32;20105;-77
2024/02/29 10:13:38;;;;;;;1.20;1.15;;;8.00;99.90;;;;;;4398620;32;20105;-76
2024/02/29 10:16:09;;;;;;;5.60;1.10;;;8.20;99.90;;;;;;4402328;32;20081;-77
2024/02/29 10:18:37;;;;;;;;;;;8.30;99.90;;;;;;4398433;32;20191;-77
2024/02/29 10:21:09;;;;;;;0.70;0.70;;;8.40;99.90;;;;;;4395776;32;20114;-78
2024/02/29 10:23:35;;;;;;;0.90;0.90;;;8.60;99.90;;;;;;4369854;32;20300;-77
2024/02/29 10:26:01;;;;;;;0.70;0.70;;;8.70;99.90;;;;;;4387469;32;20160;-77
2024/02/29 10:28:27;;;;;;;2.50;1.65;;;8.70;99.90;;;;;;4388923;32;20195;-78
2024/02/29 10:30:54;;;;;;;4.22;1.85;;;8.50;99.90;;;;;;4385093;32;20084;-78
2024/02/29 10:33:25;;;;;;;0.82;0.80;;;8.60;99.90;;;;;;4380006;32;20488;-78
2024/02/29 10:35:52;;;;;;;0.45;0.45;;;8.80;99.90;;;;;;4387914;32;20077;-77
2024/02/29 10:38:21;;;;;;;2.97;1.48;;;8.90;99.90;;;;;;4403723;32;20152;-77
2024/02/29 10:40:49;;;;;;;0.98;0.98;;;8.90;99.90;;;;;;4383792;32;20085;-77
2024/02/29 10:43:17;;;;;;;3.85;1.30;;;8.90;99.90;;;;;;4399075;32;20629;-77
2024/02/29 10:45:46;;;;;;;1.42;1.27;;;8.80;99.90;;;;;;4396958;32;20114;-77
2024/02/29 10:48:36;;;;;;;0.85;0.85;;;8.90;99.90;;;;;;4404409;32;20188;-77
2024/02/29 10:51:40;;;;;;;0.85;0.82;;;8.80;99.90;;;;;;4391995;32;20156;-78
2024/02/29 10:54:13;;;;;;;1.52;1.42;;;9.00;99.90;;;;;;4390425;32;20640;-76
2024/02/29 10:56:42;;;;;;;4.53;1.90;;;9.50;99.90;;;;;;4408089;32;20502;-76
2024/02/29 10:59:07;;;;;;;1.62;1.02;;;9.60;99.90;;;;;;4408058;32;20066;-78
2024/02/29 11:01:36;;;;;;;1.83;1.15;;;9.60;99.90;;;;;;4411101;32;20065;-77
2024/02/29 11:04:04;;;;;;;0.77;0.77;;;9.20;99.90;;;;;;4408665;32;20125;-77
2024/02/29 11:06:32;;;;;;;2.20;0.90;;;9.30;99.90;;;;;;4409754;32;20109;-77
2024/02/29 11:08:59;;;;;;;2.62;1.25;;;9.30;99.90;;;;;;4403277;32;20895;-79
2024/02/29 11:11:25;;;;;;;1.27;1.17;;;9.20;99.90;;;;;;4401843;32;20073;-76
2024/02/29 11:14:09;;;;;;;1.75;1.05;;;9.50;99.90;;;;;;4407258;32;21650;-77
2024/02/29 11:16:43;;;;;;;2.78;1.55;;;9.70;99.90;;;;;;4393447;32;20229;-77
2024/02/29 11:19:13;;;;;;;0.90;0.85;;;9.90;99.90;;;;;;4393994;32;20679;-77
2024/02/29 11:21:40;;;;;;;0.83;0.83;;;10.10;99.90;;;;;;4397469;32;20093;-79
2024/02/29 11:24:08;;;;;;;2.10;1.02;;;10.20;99.90;;;;;;4395364;32;20194;-79
2024/02/29 11:26:35;;;;;;;0.75;0.68;;;10.40;99.90;;;;;;4407212;32;20094;-78
2024/02/29 11:29:22;;;;;;;0.85;0.85;;;10.60;99.90;;;;;;4404895;32;20072;-76
2024/02/29 11:31:49;;;;;;;0.60;0.60;;;10.70;99.90;;;;;;4395362;32;20152;-78
2024/02/29 11:34:16;;;;;;;2.53;1.00;;;10.80;99.90;;;;;;4410968;32;20102;-78
2024/02/29 11:36:47;;;;;;;3.65;1.48;;;10.80;99.90;;;;;;4405361;32;20463;-79
2024/02/29 11:39:15;;;;;;;14.20;1.40;;;10.90;99.90;;;;;;4399554;32;20113;-79
2024/02/29 11:41:41;;;;;;;0.93;0.70;;;10.90;99.90;;;;;;4401676;32;20802;-79
2024/02/29 11:44:07;;;;;;;1.42;1.17;;;11.20;99.90;;;;;;4402662;32;20151;-79
2024/02/29 11:46:47;;;;;;;1.95;0.60;;;11.60;99.90;;;;;;4408685;32;20168;-78
2024/02/29 11:49:15;;;;;;;3.90;0.90;;;11.60;99.90;;;;;;4407187;32;20977;-78
2024/02/29 11:51:41;;;;;;;2.25;1.17;;;11.70;99.90;;;;;;4404404;32;111153;-79
2024/02/29 11:54:09;;;;;;;2.45;0.90;;;11.80;99.90;;;;;;4402741;32;20104;-80
2024/02/29 11:56:38;;;;;;;0.50;0.50;;;12.00;99.90;;;;;;4394382;32;20510;-80
2024/02/29 11:59:05;;;;;;;1.02;0.95;;;12.30;99.90;;;;;;4398365;32;20570;-79
2024/02/29 12:01:33;;;;;;;0.75;0.75;;;12.20;99.90;;;;;;4397566;32;20097;-78
2024/02/29 12:04:00;;;;;;;1.02;0.93;;;12.40;99.90;;;;;;4398453;32;20085;-77
2024/02/29 12:06:26;;;;;;;4.25;1.45;;;12.70;99.90;;;;;;4392570;32;20491;-78
2024/02/29 12:08:52;;;;;;;0.65;0.65;;;13.00;99.90;;;;;;4397748;32;20201;-78
2024/02/29 12:11:19;;;;;;;0.77;0.77;;;13.20;99.90;;;;;;4398594;32;20081;-78
2024/02/29 12:13:44;;;;;;;1.00;1.00;;;13.40;99.90;;;;;;4403336;32;20442;-80
2024/02/29 12:16:10;;;;;;;2.05;1.00;;;13.60;99.90;;;;;;4401262;32;20125;-77
2024/02/29 12:18:36;;;;;;;1.77;1.17;;;13.60;99.90;;;;;;4397366;32;20181;-77
2024/02/29 12:21:03;;;;;;;0.60;0.60;;;14.00;99.90;;;;;;4399693;32;20085;-78
2024/02/29 12:23:33;;;;;;;1.52;0.90;;;14.20;99.90;;;;;;4398956;32;20081;-77
2024/02/29 12:26:09;;;;;;;3.72;1.30;;;14.10;99.90;;;;;;4401149;32;20184;-77
2024/02/29 12:28:36;;;;;;;3.08;1.25;;;14.10;99.90;;;;;;4394344;32;20504;-77
2024/02/29 12:31:04;;;;;;;3.58;1.27;;;14.60;99.90;;;;;;4393623;32;20147;-77
2024/02/29 12:33:30;;;;;;;0.70;0.70;;;14.30;99.90;;;;;;4392382;32;20120;-77
2024/02/29 12:35:56;;;;;;;2.10;1.10;;;14.40;99.90;;;;;;4402501;32;20105;-77
2024/02/29 12:38:23;;;;;;;3.67;1.12;;;14.50;99.90;;;;;;4401109;32;20504;-76
2024/02/29 12:40:51;;;;;;;1.33;1.23;;;14.90;99.90;;;;;;4400190;32;21282;-76
2024/02/29 12:43:22;;;;;;;2.40;1.60;;;15.30;99.90;;;;;;4400116;32;20148;-77
2024/02/29 12:45:48;;;;;;;1.08;0.80;;;15.30;99.90;;;;;;4383433;32;20101;-77
2024/02/29 12:48:13;;;;;;;1.02;0.80;;;15.30;99.90;;;;;;4405619;32;20077;-77
2024/02/29 12:50:40;;;;;;;0.93;0.88;;;14.90;99.90;;;;;;4407066;32;20497;-76
2024/02/29 12:53:06;;;;;;;5.85;0.70;;;15.40;99.90;;;;;;4417804;32;20451;-77
2024/02/29 12:55:31;;;;;;;1.02;0.77;;;15.50;99.90;;;;;;4407540;32;20157;-77
2024/02/29 12:57:58;;;;;;;1.23;0.95;;;15.50;99.90;;;;;;4410802;32;20092;-78
2024/02/29 13:00:25;;;;;;;1.17;0.80;;;15.80;99.90;;;;;;4398583;32;20176;-77